Time;durP1;ratioP1;P1;durP2;ratioP2;P2;SDS_P1;SDS_P2;PMS_P1;PMS_P2;Temp;Humidity;BMP_temperature;BMP_pressure;BME280_temperature;BME280_humidity;BME280_pressure;Samples;Min_cycle;Max_cycle;Signal;HPM_P1;HPM_P2
2023/01/01 00:00:47;;;;;;;22.08;9.88;;;;;;;12.78;100.00;100391.34;4983012;28;20042;-83
2023/01/01 00:03:15;;;;;;;16.27;8.73;;;;;;;12.79;100.00;100382.50;5001708;28;20129;-84
2023/01/01 00:05:42;;;;;;;18.40;8.93;;;;;;;12.79;100.00;100389.56;4992802;28;20054;-84
2023/01/01 00:08:09;;;;;;;14.23;7.32;;;;;;;12.84;100.00;100400.97;4994535;28;20042;-83
2023/01/01 00:10:37;;;;;;;18.33;7.05;;;;;;;12.84;100.00;100401.84;4997027;28;20050;-83
2023/01/01 00:13:04;;;;;;;13.07;6.75;;;;;;;12.84;100.00;100398.31;4992343;28;20065;-84
2023/01/01 00:15:32;;;;;;;22.33;7.40;;;;;;;12.84;100.00;100416.84;4989303;28;20415;-84
2023/01/01 00:18:00;;;;;;;17.67;7.97;;;;;;;12.84;100.00;100417.69;4987413;28;20065;-83
2023/01/01 00:20:28;;;;;;;18.35;8.70;;;;;;;12.81;100.00;100407.16;4963659;28;20050;-84
2023/01/01 00:23:01;;;;;;;21.55;7.50;;;;;;;12.80;100.00;100421.28;4974603;28;20054;-84
2023/01/01 00:25:31;;;;;;;22.88;8.80;;;;;;;12.78;100.00;100422.19;4992284;28;20533;-84
2023/01/01 00:27:59;;;;;;;24.10;10.13;;;;;;;12.74;100.00;100410.78;4971285;28;20053;-85
2023/01/01 00:30:26;;;;;;;17.08;8.88;;;;;;;12.71;100.00;100408.19;5006758;28;20312;-83
2023/01/01 00:32:53;;;;;;;17.58;8.30;;;;;;;12.67;100.00;100415.28;4996379;28;20054;-83
2023/01/01 00:35:26;;;;;;;19.63;8.77;;;;;;;12.64;100.00;100404.72;4970474;28;20496;-82
2023/01/01 00:37:55;;;;;;;15.95;8.68;;;;;;;12.59;100.00;100414.50;5011772;28;20053;-83
2023/01/01 00:40:23;;;;;;;21.83;9.10;;;;;;;12.55;100.00;100417.19;4989946;28;20054;-82
2023/01/01 00:42:50;;;;;;;17.52;8.65;;;;;;;12.50;100.00;100422.53;4967806;28;20476;-82
2023/01/01 00:45:17;;;;;;;16.80;8.98;;;;;;;12.44;100.00;100425.25;4996349;28;20045;-83
2023/01/01 00:47:50;;;;;;;17.80;9.35;;;;;;;12.38;100.00;100425.28;4989970;28;20046;-82
2023/01/01 00:50:20;;;;;;;23.10;9.93;;;;;;;12.33;100.00;100413.94;5006045;28;20514;-82
2023/01/01 00:52:48;;;;;;;26.33;10.43;;;;;;;12.31;100.00;100423.63;4965030;28;20058;-84
2023/01/01 00:55:16;;;;;;;17.27;9.35;;;;;;;12.27;100.00;100428.94;5010147;28;20407;-83
2023/01/01 00:57:44;;;;;;;18.30;8.85;;;;;;;12.25;100.00;100432.50;4992172;28;20049;-83
2023/01/01 01:00:13;;;;;;;18.83;10.15;;;;;;;12.25;100.00;100435.16;4981243;28;20046;-83
2023/01/01 01:02:41;;;;;;;18.23;8.88;;;;;;;12.21;100.00;100426.38;4952821;28;20520;-84
2023/01/01 01:05:09;;;;;;;19.75;8.63;;;;;;;12.21;100.00;100421.09;4984409;28;20046;-82
2023/01/01 01:07:38;;;;;;;18.58;10.07;;;;;;;12.20;100.00;100416.69;4993041;28;20056;-83
2023/01/01 01:10:08;;;;;;;19.50;10.80;;;;;;;12.21;100.00;100454.53;5021452;28;20041;-83
2023/01/01 01:12:35;;;;;;;17.95;10.90;;;;;;;12.22;100.00;100430.75;4994303;28;20057;-83
2023/01/01 01:15:03;;;;;;;23.55;9.95;;;;;;;12.23;100.00;100439.53;4998493;28;20526;-83
2023/01/01 01:17:31;;;;;;;17.17;9.98;;;;;;;12.25;100.00;100451.00;5006494;28;20049;-82
2023/01/01 01:19:59;;;;;;;21.27;10.95;;;;;;;12.21;100.00;100460.72;4972985;28;20058;-83
2023/01/01 01:22:27;;;;;;;23.38;14.30;;;;;;;12.21;100.00;100467.75;4984095;28;20054;-83
2023/01/01 01:24:56;;;;;;;20.58;13.07;;;;;;;12.16;100.00;100474.84;5015235;28;20050;-83
2023/01/01 01:27:24;;;;;;;27.65;13.57;;;;;;;12.11;100.00;100479.28;4998435;28;20044;-82
2023/01/01 01:29:52;;;;;;;28.83;14.20;;;;;;;12.05;100.00;100474.94;4990879;28;20038;-84
2023/01/01 01:32:20;;;;;;;19.65;12.00;;;;;;;12.04;100.00;100479.34;5012787;28;20044;-82
2023/01/01 01:34:49;;;;;;;20.70;12.75;;;;;;;12.04;100.00;100479.34;5003277;28;20054;-80
2023/01/01 01:37:16;;;;;;;29.85;14.80;;;;;;;12.01;100.00;100481.16;4977883;28;20057;-82
2023/01/01 01:39:43;;;;;;;22.35;13.40;;;;;;;11.95;100.00;100487.34;4997321;28;20041;-83
2023/01/01 01:42:17;;;;;;;25.52;15.23;;;;;;;11.91;100.00;100488.28;4982926;28;20042;-83
2023/01/01 01:44:47;;;;;;;26.77;14.65;;;;;;;11.89;100.00;100490.03;4980347;28;20062;-83
2023/01/01 01:47:24;;;;;;;31.13;17.38;;;;;;;11.88;100.00;100489.13;4988025;28;20066;-82
2023/01/01 01:50:06;;;;;;;23.25;15.25;;;;;;;11.89;100.00;100484.75;4984538;28;20053;-82
2023/01/01 01:52:36;;;;;;;24.95;16.38;;;;;;;11.88;100.00;100494.41;4976660;28;20051;-82
2023/01/01 01:55:06;;;;;;;28.00;14.88;;;;;;;11.90;100.00;100487.38;4977597;28;20056;-85
2023/01/01 01:57:37;;;;;;;31.88;18.70;;;;;;;11.87;100.00;100495.31;4994543;28;20070;-84
2023/01/01 02:00:06;;;;;;;34.13;19.38;;;;;;;11.84;100.00;100505.00;5007039;28;20388;-83
2023/01/01 02:02:53;;;;;;;32.92;20.77;;;;;;;11.78;100.00;100503.28;5001993;28;20056;-82
2023/01/01 02:05:21;;;;;;;29.42;21.55;;;;;;;11.71;100.00;100504.22;4998067;28;20487;-83
2023/01/01 02:07:51;;;;;;;34.78;20.35;;;;;;;11.67;100.00;100497.22;4978146;28;23465;-84
2023/01/01 02:10:19;;;;;;;37.22;21.52;;;;;;;11.62;100.00;100510.41;5014903;28;20050;-83
2023/01/01 02:12:47;;;;;;;39.85;22.58;;;;;;;11.56;100.00;100513.09;5013613;28;20352;-82
2023/01/01 02:15:14;;;;;;;36.78;23.75;;;;;;;11.51;100.00;100513.16;4969568;28;20053;-83
2023/01/01 02:17:50;;;;;;;32.08;23.77;;;;;;;11.48;100.00;100520.19;4973820;28;20045;-83
2023/01/01 02:20:40;;;;;;;40.72;24.27;;;;;;;11.46;100.00;100524.63;4996029;28;20045;-83
2023/01/01 02:23:26;;;;;;;;;;;;;;;11.43;100.00;100528.13;5010248;28;20045;-83
2023/01/01 02:26:18;;;;;;;37.13;26.90;;;;;;;11.39;100.00;100528.16;4976264;28;19921;-83
2023/01/01 02:29:19;;;;;;;36.38;26.00;;;;;;;11.36;100.00;100517.63;5005083;28;20462;-83
2023/01/01 02:31:55;;;;;;;39.35;28.08;;;;;;;11.34;100.00;100536.09;4998604;28;20053;-82
2023/01/01 02:34:28;;;;;;;43.78;29.63;;;;;;;11.31;100.00;100520.28;4997408;28;20046;-83
2023/01/01 02:36:59;;;;;;;43.90;28.38;;;;;;;11.28;100.00;100520.28;5004368;28;20045;-82
2023/01/01 02:39:28;;;;;;;;;;;;;;;11.26;100.00;100515.03;4980753;28;20046;-83
2023/01/01 02:41:58;;;;;;;46.92;28.95;;;;;;;11.24;100.00;100519.44;5009433;28;19921;-83
2023/01/01 02:44:29;;;;;;;46.42;28.98;;;;;;;11.22;100.00;100515.94;5007928;28;20064;-83
2023/01/01 02:47:06;;;;;;;44.08;28.85;;;;;;;11.21;100.00;100516.81;5007385;28;20050;-83
2023/01/01 02:49:38;;;;;;;49.00;29.05;;;;;;;11.21;100.00;100529.13;4993056;28;20042;-83
2023/01/01 02:52:19;;;;;;;38.63;27.50;;;;;;;11.21;100.00;100514.19;4997781;28;20084;-83
2023/01/01 02:55:02;;;;;;;51.10;27.65;;;;;;;11.22;100.00;100504.50;4964433;28;20054;-83
2023/01/01 02:57:32;;;;;;;38.97;24.48;;;;;;;11.24;100.00;100506.25;4992390;28;20480;-83
2023/01/01 03:00:30;;;;;;;39.40;23.95;;;;;;;11.25;100.00;100515.06;4983305;28;20061;-82
2023/01/01 03:03:23;;;;;;;40.95;23.63;;;;;;;11.25;100.00;100509.78;5005235;28;20049;-82
2023/01/01 03:06:24;;;;;;;35.35;21.23;;;;;;;11.28;100.00;100513.25;5001663;28;20053;-83
2023/01/01 03:08:51;;;;;;;35.67;21.45;;;;;;;11.28;100.00;100510.59;4982343;28;20042;-83
2023/01/01 03:11:22;;;;;;;36.78;21.63;;;;;;;11.29;100.00;100528.22;4986909;28;20523;-83
2023/01/01 03:14:05;;;;;;;35.95;20.73;;;;;;;11.28;100.00;100530.84;5011900;28;20056;-82
2023/01/01 03:16:53;;;;;;;35.88;21.25;;;;;;;11.27;100.00;100537.03;5012642;28;20380;-83
2023/01/01 03:19:25;;;;;;;30.73;18.20;;;;;;;11.26;100.00;100551.06;5001678;28;20423;-83
2023/01/01 03:22:00;;;;;;;23.95;16.77;;;;;;;11.27;100.00;100558.13;5011906;28;20046;-83
2023/01/01 03:24:37;;;;;;;28.52;17.70;;;;;;;11.30;100.00;100569.53;5005744;28;20053;-82
2023/01/01 03:27:12;;;;;;;27.33;17.35;;;;;;;11.31;100.00;100575.69;4968046;28;20720;-82
2023/01/01 03:29:41;;;;;;;33.30;18.98;;;;;;;11.28;100.00;100570.41;5013029;28;20407;-82
2023/01/01 03:32:15;;;;;;;31.10;18.75;;;;;;;11.26;100.00;100575.69;5003441;28;20069;-83
2023/01/01 03:34:50;;;;;;;29.75;18.52;;;;;;;11.22;100.00;100568.69;5001458;28;20046;-83
2023/01/01 03:37:27;;;;;;;24.33;13.55;;;;;;;11.20;100.00;100565.16;5012019;28;20061;-83
2023/01/01 03:39:58;;;;;;;30.55;15.38;;;;;;;11.18;100.00;100572.22;4981600;28;20054;-83
2023/01/01 03:42:42;;;;;;;28.10;14.63;;;;;;;11.15;100.00;100572.22;4987275;28;20054;-83
2023/01/01 03:45:21;;;;;;;26.20;13.27;;;;;;;11.10;100.00;100587.19;5005613;28;20069;-83
2023/01/01 03:47:49;;;;;;;20.30;12.57;;;;;;;11.03;100.00;100588.09;5000789;28;20049;-83
2023/01/01 03:50:17;;;;;;;28.42;14.98;;;;;;;10.98;100.00;100581.94;4973406;28;20673;-84
2023/01/01 03:53:07;;;;;;;28.88;14.68;;;;;;;10.91;100.00;100589.88;4984537;28;20050;-83
2023/01/01 03:56:18;;;;;;;18.98;12.63;;;;;;;10.87;100.00;100582.84;5009804;28;20054;-84
2023/01/01 03:58:54;;;;;;;21.30;11.57;;;;;;;10.81;100.00;100597.78;4973082;28;20049;-82
2023/01/01 04:01:31;;;;;;;11.70;8.95;;;;;;;10.78;100.00;100563.56;4999067;28;20072;-83
2023/01/01 04:04:00;;;;;;;16.65;10.77;;;;;;;10.75;100.00;100567.06;5006629;28;20046;-82
2023/01/01 04:06:28;;;;;;;18.83;10.93;;;;;;;10.73;100.00;100568.81;5012593;28;20057;-81
2023/01/01 04:08:58;;;;;;;23.20;11.35;;;;;;;10.69;100.00;100578.47;5008142;28;20054;-81
2023/01/01 04:14:33;;;;;;;18.95;11.52;;;;;;;10.66;100.00;100564.44;4999326;28;20053;-82
2023/01/01 04:17:03;;;;;;;20.08;12.07;;;;;;;10.65;100.00;100562.69;5010887;28;20407;-82
2023/01/01 04:19:31;;;;;;;15.53;10.20;;;;;;;10.64;100.00;100584.63;4998301;28;20061;-82
2023/01/01 04:21:59;;;;;;;19.02;9.55;;;;;;;10.63;100.00;100582.91;4991430;28;20308;-82
2023/01/01 04:24:26;;;;;;;14.55;7.32;;;;;;;10.63;100.00;100564.47;5004461;28;20053;-82
2023/01/01 04:26:54;;;;;;;17.88;8.05;;;;;;;10.63;100.00;100562.69;5004078;28;20479;-82
2023/01/01 04:29:22;;;;;;;10.90;6.30;;;;;;;10.65;100.00;100560.06;4981408;28;20043;-82
2023/01/01 04:31:51;;;;;;;10.65;6.70;;;;;;;10.66;100.00;100582.88;4977522;28;20049;-82
2023/01/01 04:34:18;;;;;;;10.95;5.72;;;;;;;10.68;100.00;100589.03;4975065;28;20061;-82
2023/01/01 04:36:46;;;;;;;14.02;4.85;;;;;;;10.69;100.00;100588.16;4991892;28;20081;-81
2023/01/01 04:39:13;;;;;;;9.95;5.18;;;;;;;10.70;100.00;100596.06;4985340;28;20062;-82
2023/01/01 04:42:05;;;;;;;9.43;4.68;;;;;;;10.74;100.00;100604.84;5009792;28;20514;-82
2023/01/01 04:44:57;;;;;;;14.05;4.80;;;;;;;10.79;100.00;100610.09;4967122;28;20077;-82
2023/01/01 04:47:28;;;;;;;16.85;4.20;;;;;;;10.80;100.00;100591.66;4991084;28;20058;-82
2023/01/01 04:49:55;;;;;;;11.20;4.65;;;;;;;10.82;100.00;100583.75;4997034;28;20514;-82
2023/01/01 04:52:22;;;;;;;14.55;3.85;;;;;;;10.83;100.00;100564.41;4980119;28;20424;-82
2023/01/01 04:54:52;;;;;;;15.23;3.90;;;;;;;10.81;100.00;100582.88;4977818;28;20683;-82
2023/01/01 04:57:20;;;;;;;14.27;4.10;;;;;;;10.82;100.00;100596.94;4980865;28;20062;-82
2023/01/01 04:59:49;;;;;;;15.65;5.18;;;;;;;10.81;100.00;100584.63;4993503;28;20048;-82
2023/01/01 05:02:16;;;;;;;17.20;4.30;;;;;;;10.80;100.00;100589.03;4988863;28;20041;-82
2023/01/01 05:04:44;;;;;;;14.35;4.25;;;;;;;10.80;100.00;100606.59;5000230;28;20066;-82
2023/01/01 05:07:11;;;;;;;16.00;4.22;;;;;;;10.78;100.00;100621.53;4962743;28;20053;-81
2023/01/01 05:09:39;;;;;;;12.70;4.70;;;;;;;10.81;100.00;100610.97;4992078;28;20091;-81
2023/01/01 05:12:06;;;;;;;16.90;5.25;;;;;;;10.82;100.00;100620.66;4962108;28;20050;-82
2023/01/01 05:14:34;;;;;;;15.35;5.63;;;;;;;10.81;100.00;100627.69;4943835;28;20054;-82
2023/01/01 05:17:01;;;;;;;22.30;6.20;;;;;;;10.80;100.00;100630.31;4990071;28;20042;-82
2023/01/01 05:19:28;;;;;;;17.92;5.68;;;;;;;10.78;100.00;100627.69;4972967;28;20058;-81
2023/01/01 05:21:56;;;;;;;14.18;5.78;;;;;;;10.76;100.00;100647.03;4966095;28;20077;-83
2023/01/01 05:24:23;;;;;;;14.00;5.47;;;;;;;10.73;100.00;100629.44;5006983;28;20411;-81
2023/01/01 05:26:51;;;;;;;14.40;4.25;;;;;;;10.68;100.00;100645.28;4962866;28;20038;-83
2023/01/01 05:29:21;;;;;;;7.70;3.80;;;;;;;10.69;100.00;100635.59;4986044;28;20058;-83
2023/01/01 05:31:48;;;;;;;10.88;3.85;;;;;;;10.70;100.00;100658.44;4948123;28;20054;-83
2023/01/01 05:34:16;;;;;;;12.10;4.25;;;;;;;10.71;100.00;100666.31;4976082;28;20080;-83
2023/01/01 05:36:43;;;;;;;10.13;3.47;;;;;;;10.71;100.00;100671.59;4961566;28;20504;-82
2023/01/01 05:39:12;;;;;;;15.98;4.28;;;;;;;10.71;100.00;100663.69;4988009;28;20048;-82
2023/01/01 05:41:40;;;;;;;11.35;3.60;;;;;;;10.71;100.00;100655.78;4973888;28;20053;-81
2023/01/01 05:44:10;;;;;;;9.20;3.08;;;;;;;10.74;100.00;100649.66;4987426;28;20076;-81
2023/01/01 05:46:38;;;;;;;8.43;3.40;;;;;;;10.73;100.00;100658.44;4940180;28;20408;-82
2023/01/01 05:49:10;;;;;;;9.82;3.20;;;;;;;10.75;100.00;100672.47;4967587;28;20046;-82
2023/01/01 05:51:37;;;;;;;13.32;3.72;;;;;;;10.75;100.00;100683.03;4971299;28;20060;-82
2023/01/01 05:54:04;;;;;;;11.30;3.42;;;;;;;10.76;100.00;100678.66;4980146;28;20046;-81
2023/01/01 05:56:31;;;;;;;11.98;3.45;;;;;;;10.75;100.00;100687.44;4971938;28;20050;-82
2023/01/01 05:58:58;;;;;;;7.00;2.83;;;;;;;10.75;100.00;100693.56;4964524;28;20046;-81
2023/01/01 06:01:27;;;;;;;9.43;2.88;;;;;;;10.76;100.00;100694.47;4950797;28;20043;-82
2023/01/01 06:03:57;;;;;;;12.75;3.45;;;;;;;10.76;100.00;100684.78;4956915;28;20046;-82
2023/01/01 06:06:31;;;;;;;9.25;3.20;;;;;;;10.75;100.00;100697.97;4972137;28;20408;-82
2023/01/01 06:09:02;;;;;;;12.65;3.20;;;;;;;10.73;100.00;100690.94;4975078;28;20039;-82
2023/01/01 06:11:30;;;;;;;15.07;3.15;;;;;;;10.72;100.00;100688.31;4992607;28;20042;-82
2023/01/01 06:13:59;;;;;;;10.35;2.95;;;;;;;10.74;100.00;100694.47;4969720;28;20046;-82
2023/01/01 06:16:28;;;;;;;6.68;3.20;;;;;;;10.75;100.00;100708.50;4961468;28;20519;-82
2023/01/01 06:18:56;;;;;;;11.18;2.75;;;;;;;10.77;100.00;100712.03;4955331;28;20054;-82
2023/01/01 06:21:26;;;;;;;12.57;3.03;;;;;;;10.78;100.00;100714.66;4995149;28;20047;-82
2023/01/01 06:23:55;;;;;;;7.45;2.30;;;;;;;10.78;100.00;100724.34;4982477;28;20051;-82
2023/01/01 06:26:26;;;;;;;7.82;2.97;;;;;;;10.78;100.00;100724.34;4964561;28;20046;-83
2023/01/01 06:28:55;;;;;;;6.60;2.55;;;;;;;10.77;100.00;100727.84;4977036;28;20046;-82
2023/01/01 06:31:23;;;;;;;4.97;2.20;;;;;;;10.77;100.00;100739.25;4994356;28;20030;-83
2023/01/01 06:33:51;;;;;;;10.75;2.33;;;;;;;10.76;100.00;100731.38;4961165;28;20089;-83
2023/01/01 06:36:21;;;;;;;6.18;1.83;;;;;;;10.76;100.00;100758.59;4992617;28;20068;-82
2023/01/01 06:38:51;;;;;;;5.20;1.98;;;;;;;10.80;100.00;100770.03;4991899;28;20050;-82
2023/01/01 06:41:23;;;;;;;6.50;2.05;;;;;;;10.79;100.00;100776.16;4981757;28;20053;-82
2023/01/01 06:43:53;;;;;;;6.78;2.15;;;;;;;10.81;100.00;100785.84;4986040;28;20066;-82
2023/01/01 06:46:24;;;;;;;7.00;1.63;;;;;;;10.81;100.00;100790.22;4987996;28;20054;-82
2023/01/01 06:48:54;;;;;;;8.52;1.70;;;;;;;10.81;100.00;100798.13;4980290;28;20055;-82
2023/01/01 06:51:26;;;;;;;5.72;2.22;;;;;;;10.81;100.00;100817.47;4980278;28;20054;-83
2023/01/01 06:53:57;;;;;;;11.38;2.33;;;;;;;10.80;100.00;100823.63;4991701;28;20126;-84
2023/01/01 06:56:25;;;;;;;6.40;1.75;;;;;;;10.80;100.00;100826.25;4981581;28;20047;-84
2023/01/01 06:58:53;;;;;;;6.55;1.67;;;;;;;10.78;100.00;100822.72;4976140;28;20427;-83
2023/01/01 07:01:23;;;;;;;5.80;1.60;;;;;;;10.76;100.00;100835.03;4967981;28;20046;-83
2023/01/01 07:03:56;;;;;;;5.63;1.33;;;;;;;10.75;100.00;100833.25;4984582;28;20038;-83
2023/01/01 07:06:25;;;;;;;7.13;1.55;;;;;;;10.72;100.00;100814.81;4997841;28;20042;-83
2023/01/01 07:08:52;;;;;;;2.30;1.42;;;;;;;10.72;100.00;100831.50;4992696;28;20057;-83
2023/01/01 07:11:20;;;;;;;4.68;1.60;;;;;;;10.68;100.00;100819.19;4985141;28;20061;-83
2023/01/01 07:13:47;;;;;;;4.00;1.60;;;;;;;10.67;100.00;100835.88;4973263;28;20054;-83
2023/01/01 07:16:15;;;;;;;5.05;1.50;;;;;;;10.64;100.00;100837.63;4981566;28;20050;-83
2023/01/01 07:18:44;;;;;;;10.93;2.78;;;;;;;10.62;100.00;100845.50;4987296;28;20077;-84
2023/01/01 07:21:27;;;;;;;8.60;1.80;;;;;;;10.61;100.00;100849.03;4936806;28;20043;-83
2023/01/01 07:23:57;;;;;;;7.70;1.75;;;;;;;10.61;100.00;100863.97;4984632;28;20065;-84
2023/01/01 07:26:26;;;;;;;9.75;2.30;;;;;;;10.59;100.00;100863.97;4986854;28;20497;-83
2023/01/01 07:28:54;;;;;;;5.00;1.60;;;;;;;10.56;100.00;100868.34;4964435;28;20061;-80
2023/01/01 07:31:30;;;;;;;11.98;1.95;;;;;;;10.51;100.00;100869.22;4975983;28;20039;-82
2023/01/01 07:33:58;;;;;;;13.10;2.15;;;;;;;10.50;100.00;100879.75;4986123;28;20408;-84
2023/01/01 07:36:25;;;;;;;24.42;3.60;;;;;;;10.47;100.00;100882.34;4948258;28;20058;-84
2023/01/01 07:38:55;;;;;;;8.30;1.80;;;;;;;10.47;100.00;100892.91;4976502;28;20511;-83
2023/01/01 07:41:22;;;;;;;11.18;2.17;;;;;;;10.45;100.00;100899.91;4973126;28;20061;-84
2023/01/01 07:43:49;;;;;;;9.30;1.83;;;;;;;10.43;100.00;100909.56;4966518;28;20066;-82
2023/01/01 07:46:20;;;;;;;9.02;2.35;;;;;;;10.42;100.00;100918.34;4948302;28;20062;-82
2023/01/01 07:48:47;;;;;;;12.70;2.42;;;;;;;10.38;100.00;100920.09;4963187;28;20058;-82
2023/01/01 07:51:15;;;;;;;12.02;2.53;;;;;;;10.33;100.00;100917.41;4947160;28;20046;-83
2023/01/01 07:53:42;;;;;;;12.13;2.80;;;;;;;10.31;100.00;100940.25;4967673;28;20419;-83
2023/01/01 07:56:10;;;;;;;10.35;3.28;;;;;;;10.29;100.00;100948.97;4985957;28;20047;-83
2023/01/01 07:58:39;;;;;;;13.07;2.97;;;;;;;10.26;100.00;100948.94;4954925;28;20050;-82
2023/01/01 08:01:12;;;;;;;11.43;2.90;;;;;;;10.24;100.00;100958.59;4988313;28;20042;-83
2023/01/01 08:03:41;;;;;;;18.25;2.53;;;;;;;10.22;100.00;100955.06;4968650;28;20057;-83
2023/01/01 08:06:10;;;;;;;16.23;2.83;;;;;;;10.21;100.00;100974.38;4959708;28;20069;-82
2023/01/01 08:08:37;;;;;;;8.70;2.40;;;;;;;10.19;100.00;100978.75;4973299;28;20054;-83
2023/01/01 08:11:05;;;;;;;13.48;2.50;;;;;;;10.17;100.00;100991.03;4990194;28;20042;-82
2023/01/01 08:13:32;;;;;;;16.27;2.38;;;;;;;10.15;100.00;100996.28;4961408;28;20042;-83
2023/01/01 08:16:00;;;;;;;11.82;2.72;;;;;;;10.13;100.00;101005.91;4987293;28;20054;-82
2023/01/01 08:18:29;;;;;;;14.02;2.08;;;;;;;10.14;100.00;101000.66;4968952;28;20542;-82
2023/01/01 08:20:56;;;;;;;11.32;2.90;;;;;;;10.15;100.00;101007.72;4958720;28;20061;-82
2023/01/01 08:23:27;;;;;;;13.40;2.28;;;;;;;10.15;100.00;101015.63;4970730;28;20054;-82
2023/01/01 08:26:01;;;;;;;15.95;3.00;;;;;;;10.16;100.00;101019.13;4992042;28;20519;-83
2023/01/01 08:28:29;;;;;;;14.05;3.95;;;;;;;10.15;100.00;101038.41;4987715;28;20049;-82
2023/01/01 08:31:00;;;;;;;17.90;3.67;;;;;;;10.16;100.00;101045.44;4982318;28;20055;-82
2023/01/01 08:33:28;;;;;;;12.10;2.70;;;;;;;10.21;100.00;101061.28;4963068;28;20042;-82
2023/01/01 08:35:56;;;;;;;12.90;3.22;;;;;;;10.20;100.00;101060.41;4953858;28;20050;-83
2023/01/01 08:38:24;;;;;;;18.90;3.58;;;;;;;10.18;100.00;101064.78;4979314;28;20122;-82
2023/01/01 08:40:52;;;;;;;10.32;2.60;;;;;;;10.15;100.00;101047.22;4967784;28;20062;-83
2023/01/01 08:43:19;;;;;;;13.60;2.95;;;;;;;10.14;100.00;101065.63;4985530;28;20037;-82
2023/01/01 08:45:46;;;;;;;17.30;3.17;;;;;;;10.12;100.00;101060.34;4982154;28;20059;-83
2023/01/01 08:48:14;;;;;;;12.57;2.42;;;;;;;10.12;100.00;101057.72;4963724;28;20058;-83
2023/01/01 08:50:41;;;;;;;21.35;3.63;;;;;;;10.14;100.00;101070.88;4966922;28;20050;-83
2023/01/01 08:53:09;;;;;;;16.35;2.38;;;;;;;10.17;100.00;101075.28;4932174;28;20050;-83
2023/01/01 08:55:36;;;;;;;17.00;3.75;;;;;;;10.19;100.00;101065.66;4975323;28;20046;-84
2023/01/01 08:58:07;;;;;;;18.50;3.33;;;;;;;10.18;100.00;101077.06;4983049;28;20055;-83
2023/01/01 09:00:34;;;;;;;19.63;3.08;;;;;;;10.19;100.00;101086.72;4996079;28;20042;-83
2023/01/01 09:03:01;;;;;;;20.05;3.53;;;;;;;10.20;100.00;101083.22;4976702;28;20065;-83
2023/01/01 09:05:29;;;;;;;15.45;3.35;;;;;;;10.21;100.00;101084.97;4973776;28;20146;-82
2023/01/01 09:07:56;;;;;;;10.27;3.40;;;;;;;10.19;100.00;101084.09;4940541;28;20058;-82
2023/01/01 09:10:24;;;;;;;18.65;3.05;;;;;;;10.21;100.00;101077.06;4960802;28;20050;-83
2023/01/01 09:12:51;;;;;;;18.15;3.83;;;;;;;10.21;100.00;101080.63;4974097;28;20055;-82
2023/01/01 09:15:19;;;;;;;13.95;3.08;;;;;;;10.23;100.00;101099.06;4982293;28;20061;-82
2023/01/01 09:17:46;;;;;;;18.33;3.90;;;;;;;10.24;100.00;101101.69;4990162;28;20058;-83
2023/01/01 09:20:14;;;;;;;17.90;3.55;;;;;;;10.24;100.00;101111.34;4971632;28;20046;-82
2023/01/01 09:22:41;;;;;;;14.60;3.15;;;;;;;10.22;100.00;101121.88;4989187;28;20042;-83
2023/01/01 09:25:08;;;;;;;19.52;2.95;;;;;;;10.24;100.00;101106.09;4954839;28;20045;-83
2023/01/01 09:27:36;;;;;;;18.83;3.45;;;;;;;10.25;100.00;101113.13;4992545;28;20042;-83
2023/01/01 09:30:04;;;;;;;13.23;2.85;;;;;;;10.24;100.00;101117.50;4988084;28;20053;-83
2023/01/01 09:32:31;;;;;;;16.55;4.32;;;;;;;10.25;100.00;101127.19;4976831;28;20476;-83
2023/01/01 09:35:00;;;;;;;18.38;3.55;;;;;;;10.27;100.00;101129.81;4980518;28;20423;-82
2023/01/01 09:37:28;;;;;;;18.58;3.55;;;;;;;10.27;100.00;101121.94;4976755;28;20051;-83
2023/01/01 09:39:56;;;;;;;21.25;4.10;;;;;;;10.27;100.00;101140.38;4950798;28;20047;-84
2023/01/01 09:42:48;;;;;;;19.73;3.53;;;;;;;10.27;100.00;101138.59;4973632;28;20042;-82
2023/01/01 09:45:23;;;;;;;28.15;4.22;;;;;;;10.29;100.00;101138.63;4981435;28;20050;-83
2023/01/01 09:48:05;;;;;;;14.63;2.97;;;;;;;10.29;100.00;101141.25;4960705;28;20058;-82
2023/01/01 09:50:39;;;;;;;16.08;3.83;;;;;;;10.30;100.00;101136.03;4984049;28;20434;-83
2023/01/01 09:53:27;;;;;;;14.27;2.60;;;;;;;10.33;100.00;101149.22;4985595;28;20058;-83
2023/01/01 09:56:01;;;;;;;19.20;3.53;;;;;;;10.33;100.00;101143.06;4971921;28;20962;-84
2023/01/01 09:58:34;;;;;;;16.10;3.38;;;;;;;10.36;100.00;101148.38;4975818;28;20055;-82
2023/01/01 10:01:43;;;;;;;26.70;4.32;;;;;;;10.38;100.00;101148.38;5003880;28;20045;-82
2023/01/01 10:04:29;;;;;;;14.82;2.95;;;;;;;10.40;100.00;101139.63;4981439;28;20062;-83
2023/01/01 10:07:33;;;;;;;18.60;3.40;;;;;;;10.46;100.00;101142.31;4990641;28;20053;-82
2023/01/01 10:10:21;;;;;;;18.55;3.25;;;;;;;10.50;100.00;101141.47;4960515;28;20039;-81
2023/01/01 10:13:04;;;;;;;21.20;4.00;;;;;;;10.53;100.00;101141.50;4973758;28;20058;-83
2023/01/01 10:15:38;;;;;;;12.30;2.80;;;;;;;10.55;100.00;101141.53;4986334;28;20542;-82
2023/01/01 10:18:18;;;;;;;14.82;3.28;;;;;;;10.58;100.00;101138.00;4988745;28;20046;-82
2023/01/01 10:20:56;;;;;;;17.63;3.20;;;;;;;10.62;100.00;101150.34;4984399;28;20798;-82
2023/01/01 10:23:27;;;;;;;17.67;3.63;;;;;;;10.68;100.00;101134.56;4956985;28;20469;-81
2023/01/01 10:26:00;;;;;;;28.50;3.25;;;;;;;10.73;100.00;101138.13;4986983;28;20057;-82
2023/01/01 10:28:47;;;;;;;15.98;3.70;;;;;;;10.78;100.00;101136.41;4989122;28;20053;-82
2023/01/01 10:31:26;;;;;;;17.73;3.25;;;;;;;10.82;100.00;101150.50;4983166;28;20586;-82
2023/01/01 10:33:54;;;;;;;18.67;3.10;;;;;;;10.83;100.00;101154.88;4957865;28;20046;-82
2023/01/01 10:36:21;;;;;;;12.68;2.97;;;;;;;10.82;100.00;101161.03;4977108;28;20636;-81
2023/01/01 10:38:49;;;;;;;18.60;3.30;;;;;;;10.80;100.00;101171.56;4977998;28;20867;-82
2023/01/01 10:41:17;;;;;;;12.40;3.05;;;;;;;10.78;100.00;101167.16;4971384;28;20046;-83
2023/01/01 10:43:47;;;;;;;17.13;3.63;;;;;;;10.74;100.00;101161.00;4973286;28;20035;-84
2023/01/01 10:46:20;;;;;;;18.33;3.70;;;;;;;10.67;100.00;101182.88;4987335;28;20075;-83
2023/01/01 10:49:17;;;;;;;15.32;3.30;;;;;;;10.64;100.00;101170.59;4957011;28;20057;-83
2023/01/01 10:51:48;;;;;;;20.98;3.20;;;;;;;10.64;100.00;101182.84;4973482;28;20050;-83
2023/01/01 10:54:35;;;;;;;13.68;3.55;;;;;;;10.61;100.00;101177.56;4989234;28;20042;-83
2023/01/01 10:57:19;;;;;;;20.02;4.05;;;;;;;10.58;100.00;101177.53;4966984;28;20046;-82
2023/01/01 10:59:46;;;;;;;20.90;4.30;;;;;;;10.55;100.00;101178.41;4981538;28;20051;-84
2023/01/01 11:02:23;;;;;;;18.60;3.60;;;;;;;10.51;100.00;101174.88;4960082;28;20109;-83
2023/01/01 11:04:52;;;;;;;;;;;;;;;10.50;100.00;101169.56;4979614;28;20057;-83
2023/01/01 11:07:32;;;;;;;18.00;2.97;;;;;;;10.50;100.00;101172.22;4972719;28;19921;-83
2023/01/01 11:10:03;;;;;;;17.17;3.55;;;;;;;10.51;100.00;101185.41;4953488;28;20062;-83
2023/01/01 11:12:36;;;;;;;13.20;3.47;;;;;;;10.52;100.00;101176.59;4987524;28;20512;-83
2023/01/01 11:15:41;;;;;;;12.52;3.20;;;;;;;10.56;100.00;101189.81;4962714;28;20578;-84
2023/01/01 11:18:20;;;;;;;20.38;3.78;;;;;;;10.59;100.00;101166.16;4970683;28;20055;-83
2023/01/01 11:20:57;;;;;;;18.75;2.92;;;;;;;10.64;100.00;101183.75;4981823;28;20050;-83
2023/01/01 11:23:33;;;;;;;17.35;4.20;;;;;;;10.69;100.00;101182.03;4972363;28;20488;-83
2023/01/01 11:26:06;;;;;;;10.27;2.75;;;;;;;10.71;100.00;101188.19;4954653;28;20046;-83
2023/01/01 11:28:35;;;;;;;14.60;2.65;;;;;;;10.74;100.00;101182.06;4987419;28;20519;-83
2023/01/01 11:31:04;;;;;;;11.88;3.03;;;;;;;10.77;100.00;101197.91;4969805;28;20050;-83
2023/01/01 11:33:38;;;;;;;14.68;2.70;;;;;;;10.78;100.00;101210.22;4982993;28;20053;-83